createdAt,value
2023-01-09T00:00:22.189Z,97.52
2023-01-09T00:00:54.865Z,97.41
2023-01-09T00:01:27.513Z,97.41
2023-01-09T00:02:00.197Z,97.41
2023-01-09T00:02:32.964Z,97.45
2023-01-09T00:03:05.617Z,97.56
2023-01-09T00:03:38.283Z,97.56
2023-01-09T00:04:05.324Z,97.66
2023-01-09T00:04:37.985Z,97.66
2023-01-09T00:05:10.686Z,97.66
2023-01-09T00:05:43.342Z,97.66
2023-01-09T00:06:16.005Z,97.56
2023-01-09T00:06:48.681Z,97.56
2023-01-09T00:07:21.366Z,97.56
2023-01-09T00:07:54.030Z,97.56
2023-01-09T00:08:26.720Z,97.56
2023-01-09T00:08:59.441Z,97.45
2023-01-09T00:09:32.068Z,97.45
2023-01-09T00:10:04.756Z,97.45
2023-01-09T00:10:37.462Z,97.56
2023-01-09T00:11:10.109Z,97.66
2023-01-09T00:11:42.772Z,97.56
2023-01-09T00:12:15.444Z,97.45
2023-01-09T00:12:48.125Z,97.56
2023-01-09T00:13:20.795Z,97.56
2023-01-09T00:13:53.475Z,97.45
2023-01-09T00:14:26.129Z,97.56
2023-01-09T00:14:58.819Z,97.56
2023-01-09T00:15:31.492Z,97.66
2023-01-09T00:16:04.168Z,97.66
2023-01-09T00:16:36.886Z,97.66
2023-01-09T00:17:09.551Z,97.66
2023-01-09T00:17:42.220Z,97.66
2023-01-09T00:18:14.896Z,97.66
2023-01-09T00:18:47.561Z,97.66
2023-01-09T00:19:20.241Z,97.66
2023-01-09T00:19:52.934Z,97.66
2023-01-09T00:20:25.630Z,97.66
2023-01-09T00:20:58.278Z,97.66
2023-01-09T00:21:30.952Z,97.66
2023-01-09T00:22:03.629Z,97.66
2023-01-09T00:22:36.285Z,97.77
2023-01-09T00:23:08.978Z,97.77
2023-01-09T00:23:41.651Z,97.66
2023-01-09T00:24:14.317Z,97.66
2023-01-09T00:24:47.011Z,97.77
2023-01-09T00:25:19.683Z,97.87
2023-01-09T00:25:52.359Z,97.87
2023-01-09T00:26:25.030Z,97.87
2023-01-09T00:26:57.694Z,97.97
2023-01-09T00:27:30.363Z,97.87
2023-01-09T00:28:03.037Z,97.87
2023-01-09T00:28:35.697Z,97.87
2023-01-09T00:29:08.360Z,97.87
2023-01-09T00:29:41.030Z,97.77
2023-01-09T00:30:13.712Z,97.77
2023-01-09T00:30:46.400Z,97.81
2023-01-09T00:31:19.083Z,97.87
2023-01-09T00:31:51.746Z,97.91
2023-01-09T00:32:24.406Z,97.91
2023-01-09T00:32:57.075Z,97.91
2023-01-09T00:33:29.753Z,97.91
2023-01-09T00:34:02.426Z,98.02
2023-01-09T00:34:35.098Z,97.81
2023-01-09T00:35:07.773Z,97.81
2023-01-09T00:35:40.461Z,97.91
2023-01-09T00:36:13.108Z,98.02
2023-01-09T00:36:45.771Z,98.12
2023-01-09T00:37:18.446Z,98.02
2023-01-09T00:37:51.125Z,97.91
2023-01-09T00:38:23.788Z,97.91
2023-01-09T00:38:56.465Z,97.91
2023-01-09T00:39:29.141Z,98.02
2023-01-09T00:40:01.853Z,97.91
2023-01-09T00:40:34.522Z,98.02
2023-01-09T00:41:07.210Z,98.02
2023-01-09T00:41:39.879Z,98.02
2023-01-09T00:42:12.559Z,98.02
2023-01-09T00:42:45.237Z,98.02
2023-01-09T00:43:17.953Z,98.02
2023-01-09T00:43:50.620Z,98.02
2023-01-09T00:44:23.305Z,98.02
2023-01-09T00:44:55.967Z,98.12
2023-01-09T00:45:28.691Z,98.12
2023-01-09T00:46:01.388Z,98.02
2023-01-09T00:46:34.032Z,98.02
2023-01-09T00:47:06.705Z,98.12
2023-01-09T00:47:39.380Z,98.12
2023-01-09T00:48:12.050Z,98.22
2023-01-09T00:48:44.724Z,98.22
2023-01-09T00:49:17.402Z,98.22
2023-01-09T00:49:50.064Z,98.22
2023-01-09T00:50:22.753Z,98.12
2023-01-09T00:50:55.439Z,98.22
2023-01-09T00:51:28.104Z,98.17
2023-01-09T00:52:00.784Z,98.17
2023-01-09T00:52:33.454Z,98.22
2023-01-09T00:53:06.119Z,98.27
2023-01-09T00:53:38.790Z,98.27
2023-01-09T00:54:11.468Z,98.27
2023-01-09T00:54:44.128Z,98.27
2023-01-09T00:55:16.791Z,98.17
2023-01-09T00:55:49.479Z,98.27
2023-01-09T00:56:22.144Z,98.38
2023-01-09T00:56:54.809Z,98.38
2023-01-09T00:57:27.477Z,98.38
2023-01-09T00:58:00.147Z,98.38
2023-01-09T00:58:32.829Z,98.38
2023-01-09T00:59:05.506Z,98.38
2023-01-09T00:59:38.183Z,98.38
2023-01-09T01:00:09.282Z,98.38
2023-01-09T01:00:41.950Z,98.38
2023-01-09T01:01:14.823Z,98.38
2023-01-09T01:01:47.684Z,98.38
2023-01-09T01:02:20.579Z,98.38
2023-01-09T01:02:53.309Z,98.38
2023-01-09T01:03:25.993Z,98.38
2023-01-09T01:03:58.664Z,98.38
2023-01-09T01:04:31.340Z,98.38
2023-01-09T01:05:04.014Z,98.38
2023-01-09T01:05:36.714Z,98.38
2023-01-09T01:06:09.417Z,98.38
2023-01-09T01:06:42.061Z,98.38
2023-01-09T01:07:14.746Z,98.38
2023-01-09T01:07:47.407Z,98.38
2023-01-09T01:08:20.088Z,98.38
2023-01-09T01:08:52.744Z,98.27
2023-01-09T01:09:25.423Z,98.38
2023-01-09T01:09:58.091Z,98.38
2023-01-09T01:10:30.765Z,98.38
2023-01-09T01:11:03.443Z,98.38
2023-01-09T01:11:36.129Z,98.48
2023-01-09T01:12:08.800Z,98.48
2023-01-09T01:12:41.482Z,98.48
2023-01-09T01:13:14.147Z,98.48
2023-01-09T01:13:46.817Z,98.48
2023-01-09T01:14:19.493Z,98.38
2023-01-09T01:14:52.178Z,98.48
2023-01-09T01:15:24.842Z,98.48
2023-01-09T01:15:57.527Z,98.48
2023-01-09T01:16:30.259Z,98.48
2023-01-09T01:17:03.005Z,98.48
2023-01-09T01:17:35.651Z,98.58
2023-01-09T01:18:08.347Z,98.58
2023-01-09T01:18:41.016Z,98.58
2023-01-09T01:19:13.690Z,98.48
2023-01-09T01:19:46.368Z,98.48
2023-01-09T01:20:19.071Z,98.48
2023-01-09T01:20:51.716Z,98.38
2023-01-09T01:21:24.426Z,98.38
2023-01-09T01:21:57.077Z,98.38
2023-01-09T01:22:29.749Z,98.38
2023-01-09T01:23:02.418Z,98.38
2023-01-09T01:23:35.090Z,98.38
2023-01-09T01:24:07.772Z,98.38
2023-01-09T01:24:40.437Z,98.38
2023-01-09T01:25:13.122Z,98.38
2023-01-09T01:25:45.773Z,98.48
2023-01-09T01:26:18.451Z,98.38
2023-01-09T01:26:51.138Z,98.38
2023-01-09T01:27:23.786Z,98.38
2023-01-09T01:27:56.454Z,98.38
2023-01-09T01:28:29.128Z,98.38
2023-01-09T01:29:01.794Z,98.27
2023-01-09T01:29:34.459Z,98.27
2023-01-09T01:30:07.144Z,98.27
2023-01-09T01:30:39.834Z,98.27
2023-01-09T01:31:12.504Z,98.38
2023-01-09T01:31:45.179Z,98.27
2023-01-09T01:32:17.861Z,98.27
2023-01-09T01:32:50.527Z,98.27
2023-01-09T01:33:23.198Z,98.27
2023-01-09T01:33:55.869Z,98.27
2023-01-09T01:34:28.563Z,98.27
2023-01-09T01:35:01.229Z,98.17
2023-01-09T01:35:33.911Z,98.32
2023-01-09T01:36:06.593Z,98.38
2023-01-09T01:36:39.287Z,98.42
2023-01-09T01:37:11.941Z,98.42
2023-01-09T01:37:44.620Z,98.42
2023-01-09T01:38:17.309Z,98.42
2023-01-09T01:38:49.971Z,98.42
2023-01-09T01:39:22.651Z,98.42
2023-01-09T01:39:55.319Z,98.42
2023-01-09T01:40:27.987Z,98.42
2023-01-09T01:41:00.655Z,98.32
2023-01-09T01:41:33.341Z,98.32
2023-01-09T01:42:06.011Z,98.21
2023-01-09T01:42:38.677Z,98.21
2023-01-09T01:43:11.353Z,98.21
2023-01-09T01:43:44.033Z,98.32
2023-01-09T01:44:16.699Z,98.32
2023-01-09T01:44:49.387Z,98.32
2023-01-09T01:45:22.039Z,98.32
2023-01-09T01:45:54.782Z,98.42
2023-01-09T01:46:27.487Z,98.42
2023-01-09T01:47:00.159Z,98.42
2023-01-09T01:47:32.828Z,98.42
2023-01-09T01:48:05.517Z,98.42
2023-01-09T01:48:38.171Z,98.47
2023-01-09T01:49:10.840Z,98.57
2023-01-09T01:49:43.516Z,98.57
2023-01-09T01:50:16.206Z,98.57
2023-01-09T01:50:48.840Z,98.68
2023-01-09T01:51:21.532Z,98.78
2023-01-09T01:51:54.243Z,98.78
2023-01-09T01:52:26.921Z,98.88
2023-01-09T01:52:59.588Z,98.99
2023-01-09T01:53:32.265Z,99.09
2023-01-09T01:54:04.934Z,99.09
2023-01-09T01:54:37.610Z,99.09
2023-01-09T01:55:10.336Z,99.19
2023-01-09T01:55:43.004Z,99.19
2023-01-09T01:56:15.685Z,99.30
2023-01-09T01:56:48.374Z,99.30
2023-01-09T01:57:21.043Z,99.30
2023-01-09T01:57:53.724Z,99.30
2023-01-09T01:58:26.399Z,99.30
2023-01-09T01:58:59.061Z,99.30
2023-01-09T01:59:31.749Z,99.19
2023-01-09T02:00:04.406Z,99.19
2023-01-09T02:00:37.066Z,99.19
2023-01-09T02:01:09.899Z,99.19
2023-01-09T02:01:42.750Z,99.34
2023-01-09T02:02:15.620Z,99.30
2023-01-09T02:02:48.460Z,99.34
2023-01-09T02:03:21.110Z,99.44
2023-01-09T02:03:53.782Z,99.44
2023-01-09T02:04:26.452Z,99.44
2023-01-09T02:04:59.121Z,99.44
2023-01-09T02:05:31.789Z,99.34
2023-01-09T02:06:04.444Z,99.34
2023-01-09T02:06:37.134Z,99.34
2023-01-09T02:07:09.822Z,99.34
2023-01-09T02:07:42.476Z,99.34
2023-01-09T02:08:15.157Z,99.34
2023-01-09T02:08:47.822Z,99.44
2023-01-09T02:09:20.487Z,99.44
2023-01-09T02:09:53.161Z,99.55
2023-01-09T02:10:25.834Z,99.55
2023-01-09T02:10:58.504Z,99.65
2023-01-09T02:11:31.206Z,99.65
2023-01-09T02:12:03.877Z,99.65
2023-01-09T02:12:36.541Z,99.65
2023-01-09T02:13:09.211Z,99.65
2023-01-09T02:13:41.885Z,99.65
2023-01-09T02:14:14.581Z,99.65
2023-01-09T02:14:47.260Z,99.65
2023-01-09T02:15:19.923Z,99.65
2023-01-09T02:15:52.693Z,99.65
2023-01-09T02:16:25.368Z,99.76
2023-01-09T02:16:58.037Z,99.86
2023-01-09T02:17:30.736Z,99.86
2023-01-09T02:18:03.399Z,99.96
2023-01-09T02:18:36.063Z,99.96
2023-01-09T02:19:08.741Z,99.96
2023-01-09T02:19:41.410Z,99.96
2023-01-09T02:20:14.081Z,99.96
2023-01-09T02:20:46.782Z,99.96
2023-01-09T02:21:19.423Z,99.96
2023-01-09T02:21:52.098Z,99.96
2023-01-09T02:22:24.819Z,99.99
2023-01-09T02:22:57.471Z,99.99
2023-01-09T02:23:30.139Z,99.99
2023-01-09T02:24:02.810Z,99.99
2023-01-09T02:24:35.475Z,99.99
2023-01-09T02:25:08.146Z,99.99
2023-01-09T02:25:40.811Z,99.99
2023-01-09T02:26:13.484Z,99.99
2023-01-09T02:26:46.144Z,99.99
2023-01-09T02:27:18.810Z,99.99
2023-01-09T02:27:51.503Z,99.99
2023-01-09T02:28:24.174Z,99.99
2023-01-09T02:28:56.832Z,99.99
2023-01-09T02:29:29.501Z,99.99
2023-01-09T02:30:02.176Z,99.99
2023-01-09T02:30:34.853Z,99.99
2023-01-09T02:31:07.520Z,99.99
2023-01-09T02:31:40.235Z,99.96
2023-01-09T02:32:12.888Z,99.96
2023-01-09T02:32:43.978Z,99.96
2023-01-09T02:33:16.667Z,99.96
2023-01-09T02:33:49.339Z,99.96
2023-01-09T02:34:22.020Z,99.96
2023-01-09T02:34:54.700Z,99.96
2023-01-09T02:35:25.793Z,99.96
2023-01-09T02:35:58.470Z,99.96
2023-01-09T02:36:31.128Z,99.91
2023-01-09T02:37:03.796Z,99.91
2023-01-09T02:37:36.483Z,99.91
2023-01-09T02:38:09.165Z,99.91
2023-01-09T02:38:40.254Z,99.91
2023-01-09T02:39:12.924Z,99.99
2023-01-09T02:39:45.585Z,99.99
2023-01-09T02:40:18.256Z,99.99
2023-01-09T02:40:50.926Z,99.99
2023-01-09T02:41:23.591Z,99.99
2023-01-09T02:41:56.260Z,99.99
2023-01-09T02:42:28.939Z,99.99
2023-01-09T02:43:01.607Z,99.99
2023-01-09T02:43:34.292Z,99.99
2023-01-09T02:44:06.962Z,99.99
2023-01-09T02:44:39.633Z,99.99
2023-01-09T02:45:12.299Z,99.99
2023-01-09T02:45:45.054Z,99.99
2023-01-09T02:46:17.717Z,99.99
2023-01-09T02:46:50.383Z,99.99
2023-01-09T02:47:23.060Z,99.99
2023-01-09T02:47:55.724Z,99.99
2023-01-09T02:48:28.422Z,99.99
2023-01-09T02:49:01.091Z,99.99
2023-01-09T02:49:33.784Z,99.99
2023-01-09T02:50:06.440Z,99.99
2023-01-09T02:50:39.107Z,99.99
2023-01-09T02:51:11.794Z,99.99
2023-01-09T02:51:44.476Z,99.99
2023-01-09T02:52:17.153Z,99.99
2023-01-09T02:52:49.865Z,99.99
2023-01-09T02:53:22.518Z,99.99
2023-01-09T02:53:55.223Z,99.99
2023-01-09T02:54:27.870Z,99.99
2023-01-09T02:55:00.568Z,99.99
2023-01-09T02:55:33.247Z,99.99
2023-01-09T02:56:05.912Z,99.99
2023-01-09T02:56:38.571Z,99.99
2023-01-09T02:57:11.245Z,99.99
2023-01-09T02:57:43.920Z,99.99
2023-01-09T02:58:16.592Z,99.99
2023-01-09T02:58:49.284Z,99.99
2023-01-09T02:59:21.965Z,99.99
2023-01-09T02:59:54.630Z,99.99
2023-01-09T03:00:27.307Z,99.99
2023-01-09T03:01:00.065Z,99.99
2023-01-09T03:01:32.924Z,99.99
2023-01-09T03:02:05.756Z,99.99
2023-01-09T03:02:38.490Z,99.99
2023-01-09T03:03:11.173Z,99.99
2023-01-09T03:03:43.843Z,99.99
2023-01-09T03:04:14.953Z,99.99
2023-01-09T03:04:47.632Z,99.99
2023-01-09T03:05:20.317Z,99.99
2023-01-09T03:05:52.980Z,99.99
2023-01-09T03:06:27.583Z,99.99
2023-01-09T03:06:53.797Z,99.99
2023-01-09T03:07:26.470Z,99.99
2023-01-09T03:07:59.155Z,99.99
2023-01-09T03:08:31.827Z,99.99
2023-01-09T03:09:04.518Z,99.99
2023-01-09T03:09:37.191Z,99.99
2023-01-09T03:10:09.889Z,99.99
2023-01-09T03:10:42.545Z,99.99
2023-01-09T03:11:15.218Z,99.99
2023-01-09T03:11:47.902Z,99.99
2023-01-09T03:12:20.555Z,99.99
2023-01-09T03:12:53.231Z,99.99
2023-01-09T03:13:25.898Z,99.99
2023-01-09T03:13:58.568Z,99.99
2023-01-09T03:14:31.238Z,99.99
2023-01-09T03:15:03.915Z,99.99
2023-01-09T03:15:36.568Z,99.99
2023-01-09T03:16:09.251Z,99.99
2023-01-09T03:16:41.983Z,99.99
2023-01-09T03:17:14.650Z,99.99
2023-01-09T03:17:47.293Z,99.99
2023-01-09T03:18:19.976Z,99.99
2023-01-09T03:18:52.641Z,99.99
2023-01-09T03:19:25.328Z,99.99
2023-01-09T03:19:58.008Z,99.99
2023-01-09T03:20:30.662Z,99.99
2023-01-09T03:21:03.327Z,99.99
2023-01-09T03:21:36.002Z,99.99
2023-01-09T03:22:08.661Z,99.99
2023-01-09T03:22:41.335Z,99.99
2023-01-09T03:23:14.042Z,99.99
2023-01-09T03:23:46.690Z,99.99
2023-01-09T03:24:19.388Z,99.99
2023-01-09T03:24:52.068Z,99.99
2023-01-09T03:25:24.736Z,99.99
2023-01-09T03:25:57.404Z,99.99
2023-01-09T03:26:30.071Z,99.99
2023-01-09T03:27:01.162Z,99.99
2023-01-09T03:27:33.832Z,99.99
2023-01-09T03:28:06.527Z,99.99
2023-01-09T03:28:39.181Z,99.99
2023-01-09T03:29:11.845Z,99.99
2023-01-09T03:29:44.532Z,99.99
2023-01-09T03:30:17.202Z,99.99
2023-01-09T03:30:49.881Z,99.99
2023-01-09T03:31:22.607Z,99.99
2023-01-09T03:31:55.288Z,99.99
2023-01-09T03:32:27.962Z,99.99
2023-01-09T03:33:00.633Z,99.99
2023-01-09T03:33:33.301Z,99.99
2023-01-09T03:34:05.978Z,99.99
2023-01-09T03:34:38.642Z,99.99
2023-01-09T03:35:11.337Z,99.99
2023-01-09T03:35:43.996Z,99.99
2023-01-09T03:36:16.673Z,99.99
2023-01-09T03:36:49.347Z,99.99
2023-01-09T03:37:22.016Z,99.99
2023-01-09T03:37:54.682Z,99.99
2023-01-09T03:38:27.376Z,99.99
2023-01-09T03:39:00.030Z,99.99
2023-01-09T03:39:32.706Z,99.99
2023-01-09T03:40:05.391Z,99.99
2023-01-09T03:40:38.062Z,99.99
2023-01-09T03:41:10.731Z,99.99
2023-01-09T03:41:43.407Z,99.99
2023-01-09T03:42:16.070Z,99.99
2023-01-09T03:42:48.744Z,99.99
2023-01-09T03:43:21.415Z,99.99
2023-01-09T03:43:54.091Z,99.99
2023-01-09T03:44:26.756Z,99.99
2023-01-09T03:44:59.471Z,99.99
2023-01-09T03:45:32.160Z,99.99
2023-01-09T03:46:04.903Z,99.99
2023-01-09T03:46:37.564Z,99.99
2023-01-09T03:47:10.275Z,99.99
2023-01-09T03:47:42.926Z,99.99
2023-01-09T03:48:15.597Z,99.99
2023-01-09T03:48:48.268Z,99.99
2023-01-09T03:49:20.931Z,99.99
2023-01-09T03:49:53.588Z,99.99
2023-01-09T03:50:26.276Z,99.99
2023-01-09T03:50:58.947Z,99.99
2023-01-09T03:51:31.613Z,99.99
2023-01-09T03:52:04.279Z,99.99
2023-01-09T03:52:36.952Z,99.99
2023-01-09T03:53:09.602Z,99.99
2023-01-09T03:53:42.295Z,99.99
2023-01-09T03:54:14.927Z,99.99
2023-01-09T03:54:47.594Z,99.99
2023-01-09T03:55:20.289Z,99.99
2023-01-09T03:55:52.953Z,99.99
2023-01-09T03:56:25.672Z,99.99
2023-01-09T03:56:58.320Z,99.99
2023-01-09T03:57:30.983Z,99.99
2023-01-09T03:58:03.663Z,99.99
2023-01-09T03:58:36.321Z,99.99
2023-01-09T03:59:08.983Z,99.99
2023-01-09T03:59:41.657Z,99.99
2023-01-09T04:00:14.331Z,99.99
2023-01-09T04:00:47.071Z,99.99
2023-01-09T04:01:19.836Z,99.99
2023-01-09T04:01:52.615Z,99.99
2023-01-09T04:02:25.310Z,99.99
2023-01-09T04:02:57.993Z,99.99
2023-01-09T04:03:30.744Z,99.99
2023-01-09T04:04:03.503Z,99.99
2023-01-09T04:04:36.162Z,99.99
2023-01-09T04:05:08.839Z,99.99
2023-01-09T04:05:41.514Z,99.99
2023-01-09T04:06:14.200Z,99.99
2023-01-09T04:06:46.865Z,99.99
2023-01-09T04:07:19.538Z,99.99
2023-01-09T04:07:52.208Z,99.99
2023-01-09T04:08:24.884Z,99.99
2023-01-09T04:08:57.574Z,99.99
2023-01-09T04:09:30.224Z,99.99
2023-01-09T04:10:02.915Z,99.99
2023-01-09T04:10:35.605Z,99.99
2023-01-09T04:11:08.258Z,99.99
2023-01-09T04:11:40.931Z,99.99
2023-01-09T04:12:13.583Z,99.99
2023-01-09T04:12:46.277Z,99.99
2023-01-09T04:13:18.916Z,99.99
2023-01-09T04:13:51.580Z,99.99
2023-01-09T04:14:24.255Z,99.99
2023-01-09T04:14:56.953Z,99.99
2023-01-09T04:15:29.633Z,99.99
2023-01-09T04:16:02.345Z,99.99
2023-01-09T04:16:35.084Z,99.99
2023-01-09T04:17:07.741Z,99.99
2023-01-09T04:17:40.414Z,99.99
2023-01-09T04:18:13.093Z,99.99
2023-01-09T04:18:45.751Z,99.99
2023-01-09T04:19:18.425Z,99.99
2023-01-09T04:19:51.099Z,99.99
2023-01-09T04:20:23.778Z,99.99
2023-01-09T04:20:56.451Z,99.99
2023-01-09T04:21:29.134Z,99.99
2023-01-09T04:22:01.823Z,99.99
2023-01-09T04:22:34.479Z,99.99
2023-01-09T04:23:07.144Z,99.99
2023-01-09T04:23:39.820Z,99.99
2023-01-09T04:24:12.534Z,99.99
2023-01-09T04:24:45.167Z,99.99
2023-01-09T04:25:17.833Z,99.99
2023-01-09T04:25:50.534Z,99.99
2023-01-09T04:26:23.211Z,99.99
2023-01-09T04:26:55.873Z,99.99
2023-01-09T04:27:28.547Z,99.99
2023-01-09T04:28:01.203Z,99.99
2023-01-09T04:28:33.889Z,99.99
2023-01-09T04:29:06.571Z,99.99
2023-01-09T04:29:39.252Z,99.99
2023-01-09T04:30:11.915Z,99.99
2023-01-09T04:30:44.601Z,99.99
2023-01-09T04:31:17.394Z,99.99
2023-01-09T04:31:48.390Z,99.99
2023-01-09T04:32:21.031Z,99.99
2023-01-09T04:32:53.710Z,99.99
2023-01-09T04:33:26.371Z,99.99
2023-01-09T04:33:59.046Z,99.99
2023-01-09T04:34:31.718Z,99.99
2023-01-09T04:35:04.370Z,99.99
2023-01-09T04:35:37.063Z,99.99
2023-01-09T04:36:09.762Z,99.99
2023-01-09T04:36:42.420Z,99.99
2023-01-09T04:37:13.510Z,99.99
2023-01-09T04:37:46.174Z,99.99
2023-01-09T04:38:18.840Z,99.99
2023-01-09T04:38:51.514Z,99.99
2023-01-09T04:39:24.207Z,99.99
2023-01-09T04:39:56.910Z,99.99
2023-01-09T04:40:29.567Z,99.99
2023-01-09T04:41:02.280Z,99.99
2023-01-09T04:41:34.931Z,99.99
2023-01-09T04:42:07.627Z,99.99
2023-01-09T04:42:40.273Z,99.99
2023-01-09T04:43:12.980Z,99.99
2023-01-09T04:43:45.651Z,99.92
2023-01-09T04:44:18.311Z,99.92
2023-01-09T04:44:50.986Z,99.92
2023-01-09T04:45:23.652Z,99.99
2023-01-09T04:45:56.541Z,99.99
2023-01-09T04:46:29.228Z,99.99
2023-01-09T04:47:01.893Z,99.99
2023-01-09T04:47:34.563Z,99.99
2023-01-09T04:48:07.261Z,99.99
2023-01-09T04:48:39.898Z,99.99
2023-01-09T04:49:12.569Z,99.99
2023-01-09T04:49:45.249Z,99.92
2023-01-09T04:50:17.916Z,99.82
2023-01-09T04:50:50.619Z,99.82
2023-01-09T04:51:23.299Z,99.77
2023-01-09T04:51:55.975Z,99.77
2023-01-09T04:52:28.654Z,99.87
2023-01-09T04:53:01.327Z,99.87
2023-01-09T04:53:33.978Z,99.77
2023-01-09T04:54:06.648Z,99.77
2023-01-09T04:54:39.341Z,99.77
2023-01-09T04:55:11.978Z,99.77
2023-01-09T04:55:44.642Z,99.77
2023-01-09T04:56:17.360Z,99.66
2023-01-09T04:56:48.437Z,99.66
2023-01-09T04:57:21.101Z,99.66
2023-01-09T04:57:53.778Z,99.56
2023-01-09T04:58:26.457Z,99.56
2023-01-09T04:58:59.126Z,99.56
2023-01-09T04:59:31.814Z,99.56
2023-01-09T05:00:04.472Z,99.56
2023-01-09T05:00:37.148Z,99.66
2023-01-09T05:01:09.924Z,99.66
2023-01-09T05:01:42.687Z,99.77
2023-01-09T05:02:15.461Z,99.66
2023-01-09T05:02:48.110Z,99.66
2023-01-09T05:03:20.801Z,99.56
2023-01-09T05:03:53.513Z,99.56
2023-01-09T05:04:26.259Z,99.66
2023-01-09T05:04:58.908Z,99.77
2023-01-09T05:05:31.575Z,99.77
2023-01-09T05:06:04.266Z,99.77
2023-01-09T05:06:36.948Z,99.77
2023-01-09T05:07:09.610Z,99.77
2023-01-09T05:07:42.267Z,99.77
2023-01-09T05:08:14.936Z,99.77
2023-01-09T05:08:47.603Z,99.77
2023-01-09T05:09:20.281Z,99.77
2023-01-09T05:09:52.968Z,99.77
2023-01-09T05:10:25.611Z,99.77
2023-01-09T05:10:58.287Z,99.77
2023-01-09T05:11:30.959Z,99.87
2023-01-09T05:12:03.619Z,99.87
2023-01-09T05:12:36.393Z,99.87
2023-01-09T05:13:09.060Z,99.87
2023-01-09T05:13:41.723Z,99.87
2023-01-09T05:14:14.403Z,99.77
2023-01-09T05:14:47.058Z,99.77
2023-01-09T05:15:19.718Z,99.77
2023-01-09T05:15:52.391Z,99.87
2023-01-09T05:16:25.106Z,99.87
2023-01-09T05:16:57.793Z,99.87
2023-01-09T05:17:30.455Z,99.87
2023-01-09T05:18:03.124Z,99.77
2023-01-09T05:18:35.790Z,99.77
2023-01-09T05:19:08.488Z,99.77
2023-01-09T05:19:41.148Z,99.77
2023-01-09T05:20:13.810Z,99.87
2023-01-09T05:20:46.480Z,99.87
2023-01-09T05:21:19.159Z,99.87
2023-01-09T05:21:51.854Z,99.87
2023-01-09T05:22:24.527Z,99.87
2023-01-09T05:22:57.212Z,99.77
2023-01-09T05:23:29.886Z,99.77
2023-01-09T05:24:02.553Z,99.77
2023-01-09T05:24:35.220Z,99.87
2023-01-09T05:25:07.915Z,99.82
2023-01-09T05:25:40.559Z,99.82
2023-01-09T05:26:13.264Z,99.82
2023-01-09T05:26:45.938Z,99.82
2023-01-09T05:27:18.602Z,99.82
2023-01-09T05:27:51.277Z,99.82
2023-01-09T05:28:23.957Z,99.82
2023-01-09T05:28:56.623Z,99.82
2023-01-09T05:29:29.317Z,99.82
2023-01-09T05:30:01.972Z,99.82
2023-01-09T05:30:34.651Z,99.82
2023-01-09T05:31:07.323Z,99.93
2023-01-09T05:31:40.035Z,99.93
2023-01-09T05:32:12.679Z,99.93
2023-01-09T05:32:45.355Z,99.93
2023-01-09T05:33:18.021Z,99.99
2023-01-09T05:33:50.728Z,99.93
2023-01-09T05:34:23.390Z,99.93
2023-01-09T05:34:56.049Z,99.93
2023-01-09T05:35:28.723Z,99.99
2023-01-09T05:36:01.427Z,99.99
2023-01-09T05:36:34.119Z,99.99
2023-01-09T05:37:06.772Z,99.99
2023-01-09T05:37:39.439Z,99.99
2023-01-09T05:38:12.127Z,99.99
2023-01-09T05:38:44.782Z,99.99
2023-01-09T05:39:17.480Z,99.99
2023-01-09T05:39:50.140Z,99.99
2023-01-09T05:40:24.841Z,99.99
2023-01-09T05:40:54.884Z,99.99
2023-01-09T05:41:23.501Z,99.99
2023-01-09T05:41:50.322Z,99.99
2023-01-09T05:42:23.003Z,99.99
2023-01-09T05:42:55.669Z,99.99
2023-01-09T05:43:28.341Z,99.99
2023-01-09T05:44:01.021Z,99.99
2023-01-09T05:44:33.690Z,99.99
2023-01-09T05:45:06.352Z,99.99
2023-01-09T05:45:39.096Z,99.99
2023-01-09T05:46:11.776Z,99.99
2023-01-09T05:46:44.432Z,99.99
2023-01-09T05:47:17.104Z,99.99
2023-01-09T05:47:49.792Z,99.99
2023-01-09T05:48:22.457Z,99.99
2023-01-09T05:48:55.123Z,99.99
2023-01-09T05:49:27.796Z,99.99
2023-01-09T05:50:00.495Z,99.99
2023-01-09T05:50:33.140Z,99.99
2023-01-09T05:51:05.824Z,99.99
2023-01-09T05:51:38.503Z,99.99
2023-01-09T05:52:11.250Z,99.99
2023-01-09T05:52:43.894Z,99.99
2023-01-09T05:53:16.571Z,99.99
2023-01-09T05:53:49.261Z,99.99
2023-01-09T05:54:21.931Z,99.99
2023-01-09T05:54:54.622Z,99.99
2023-01-09T05:55:27.326Z,99.99
2023-01-09T05:56:00.004Z,99.99
2023-01-09T05:56:32.687Z,99.99
2023-01-09T05:57:05.370Z,99.99
2023-01-09T05:57:38.022Z,99.99
2023-01-09T05:58:10.692Z,99.99
2023-01-09T05:58:43.362Z,99.99
2023-01-09T05:59:16.036Z,99.99
2023-01-09T05:59:48.707Z,99.99
2023-01-09T06:00:21.373Z,99.99
2023-01-09T06:00:54.098Z,99.99
2023-01-09T06:01:26.875Z,99.99
2023-01-09T06:01:59.621Z,99.99
2023-01-09T06:02:32.472Z,99.99
2023-01-09T06:03:05.421Z,99.99
2023-01-09T06:03:31.699Z,99.99
2023-01-09T06:04:04.383Z,99.99
2023-01-09T06:04:37.052Z,99.99
2023-01-09T06:05:09.732Z,99.99
2023-01-09T06:05:42.402Z,99.99
2023-01-09T06:06:15.065Z,99.99
2023-01-09T06:06:47.745Z,99.99
2023-01-09T06:07:23.310Z,99.99
2023-01-09T06:07:51.505Z,99.99
2023-01-09T06:08:24.171Z,99.99
2023-01-09T06:08:56.838Z,99.99
2023-01-09T06:09:29.507Z,99.99
2023-01-09T06:10:02.178Z,99.99
2023-01-09T06:10:34.909Z,99.99
2023-01-09T06:11:07.561Z,99.99
2023-01-09T06:11:38.663Z,99.99
2023-01-09T06:12:11.416Z,99.99
2023-01-09T06:12:44.081Z,99.99
2023-01-09T06:13:16.764Z,99.99
2023-01-09T06:13:49.445Z,99.99
2023-01-09T06:14:22.109Z,99.99
2023-01-09T06:14:54.770Z,99.99
2023-01-09T06:15:27.444Z,99.99
2023-01-09T06:16:00.178Z,99.99
2023-01-09T06:16:32.893Z,99.99
2023-01-09T06:17:05.560Z,99.99
2023-01-09T06:17:38.232Z,99.99
2023-01-09T06:18:10.899Z,99.99
2023-01-09T06:18:43.569Z,99.99
2023-01-09T06:19:16.255Z,99.99
2023-01-09T06:19:48.898Z,99.99
2023-01-09T06:20:21.572Z,99.99
2023-01-09T06:20:54.245Z,99.99
2023-01-09T06:21:26.934Z,99.99
2023-01-09T06:21:59.603Z,99.99
2023-01-09T06:22:32.262Z,99.99
2023-01-09T06:23:04.938Z,99.99
2023-01-09T06:23:37.600Z,99.99
2023-01-09T06:24:10.264Z,99.99
2023-01-09T06:24:42.937Z,99.99
2023-01-09T06:25:15.731Z,99.99
2023-01-09T06:25:48.455Z,99.99
2023-01-09T06:26:21.114Z,99.99
2023-01-09T06:26:53.801Z,99.99
2023-01-09T06:27:26.474Z,99.99
2023-01-09T06:27:59.175Z,99.99
2023-01-09T06:28:31.862Z,99.99
2023-01-09T06:29:04.544Z,99.99
2023-01-09T06:29:37.212Z,99.99
2023-01-09T06:30:09.903Z,99.99
2023-01-09T06:30:42.562Z,99.99
2023-01-09T06:31:15.320Z,99.99
2023-01-09T06:31:47.992Z,99.99
2023-01-09T06:32:20.675Z,99.99
2023-01-09T06:32:53.353Z,99.99
2023-01-09T06:33:26.037Z,99.99
2023-01-09T06:33:58.731Z,99.99
2023-01-09T06:34:31.519Z,99.99
2023-01-09T06:35:04.261Z,99.99
2023-01-09T06:35:36.949Z,99.99
2023-01-09T06:36:09.617Z,99.99
2023-01-09T06:36:42.293Z,99.99
2023-01-09T06:37:14.962Z,99.99
2023-01-09T06:37:47.628Z,99.99
2023-01-09T06:38:20.300Z,99.99
2023-01-09T06:38:52.975Z,99.99
2023-01-09T06:39:25.636Z,99.99
2023-01-09T06:39:58.306Z,99.99
2023-01-09T06:40:30.976Z,99.99
2023-01-09T06:41:03.661Z,99.99
2023-01-09T06:41:36.373Z,99.99
2023-01-09T06:42:09.014Z,99.99
2023-01-09T06:42:41.683Z,99.99
2023-01-09T06:43:14.346Z,99.99
2023-01-09T06:43:47.012Z,99.99
2023-01-09T06:44:19.685Z,99.99
2023-01-09T06:44:52.355Z,99.99
2023-01-09T06:45:25.018Z,99.99
2023-01-09T06:45:57.725Z,99.99
2023-01-09T06:46:30.463Z,99.99
2023-01-09T06:47:03.123Z,99.99
2023-01-09T06:47:35.793Z,99.99
2023-01-09T06:48:08.457Z,99.99
2023-01-09T06:48:41.172Z,99.99
2023-01-09T06:49:13.837Z,99.99
2023-01-09T06:49:46.497Z,99.99
2023-01-09T06:50:19.164Z,99.99
2023-01-09T06:50:51.831Z,99.99
2023-01-09T06:51:24.516Z,99.99
2023-01-09T06:51:57.175Z,99.99
2023-01-09T06:52:29.856Z,99.99
2023-01-09T06:53:02.540Z,99.99
2023-01-09T06:53:35.228Z,99.99
2023-01-09T06:54:06.283Z,99.99
2023-01-09T06:54:38.957Z,99.99
2023-01-09T06:55:11.628Z,99.99
2023-01-09T06:55:44.314Z,99.99
2023-01-09T06:56:17.101Z,99.99
2023-01-09T06:56:49.736Z,99.99
2023-01-09T06:57:22.411Z,99.99
2023-01-09T06:57:55.085Z,99.99
2023-01-09T06:58:27.749Z,99.99
2023-01-09T06:59:00.433Z,99.99
2023-01-09T06:59:33.076Z,99.99
2023-01-09T07:00:05.761Z,99.99